Time;durP1;ratioP1;P1;durP2;ratioP2;P2;SDS_P1;SDS_P2;PMS_P1;PMS_P2;Temp;Humidity;BMP_temperature;BMP_pressure;BME280_temperature;BME280_humidity;BME280_pressure;Samples;Min_cycle;Max_cycle;Signal;HPM_P1;HPM_P2
2020/12/15 00:00:23;;;;;;;12.98;3.13;;;;;;;16.86;40.25;99107.97;5093656;28;20024;-93
2020/12/15 00:02:49;;;;;;;10.90;2.30;;;;;;;16.85;40.43;99105.59;5094283;28;20059;-83
2020/12/15 00:05:15;;;;;;;16.75;3.25;;;;;;;16.79;40.35;99107.97;5093470;28;20031;-82
2020/12/15 00:07:40;;;;;;;11.43;2.50;;;;;;;16.79;40.40;99104.44;5094390;28;20462;-91
2020/12/15 00:10:06;;;;;;;13.85;3.20;;;;;;;16.83;40.35;99102.44;5094501;28;20019;-93
2020/12/15 00:12:31;;;;;;;14.55;2.47;;;;;;;16.83;40.19;99099.69;5094722;28;20048;-83
2020/12/15 00:14:57;;;;;;;7.75;2.70;;;;;;;16.81;40.31;99102.06;5094456;28;20032;-95
2020/12/15 00:17:22;;;;;;;12.13;3.72;;;;;;;16.79;40.15;99101.69;5094715;28;20032;-93
2020/12/15 00:19:48;;;;;;;15.57;3.95;;;;;;;16.78;39.96;99100.09;5093113;28;20471;-84
2020/12/15 00:22:14;;;;;;;12.50;3.05;;;;;;;16.52;40.50;99107.53;5095560;28;20040;-89
2020/12/15 00:24:39;;;;;;;11.77;2.97;;;;;;;16.46;40.76;99108.31;5097914;28;20531;-84
2020/12/15 00:27:05;;;;;;;7.65;2.30;;;;;;;16.42;40.72;99116.59;5095241;28;20036;-94
2020/12/15 00:29:31;;;;;;;11.73;2.80;;;;;;;16.42;40.64;99116.59;5094610;28;20024;-83
2020/12/15 00:31:56;;;;;;;8.35;3.13;;;;;;;16.36;40.83;99116.16;5094749;28;20039;-93
2020/12/15 00:34:22;;;;;;;9.07;3.70;;;;;;;16.24;41.17;99113.78;5092978;28;20112;-93
2020/12/15 00:36:48;;;;;;;7.93;2.63;;;;;;;16.37;41.08;99120.50;5093767;28;20060;-88
2020/12/15 00:39:13;;;;;;;8.15;2.55;;;;;;;16.38;40.73;99115.78;5094002;28;20081;-92
2020/12/15 00:41:39;;;;;;;12.95;3.50;;;;;;;16.38;40.77;99113.03;5094602;28;20481;-84
2020/12/15 00:44:05;;;;;;;9.52;2.10;;;;;;;16.40;40.70;99118.13;5093727;28;20021;-93
2020/12/15 00:46:30;;;;;;;9.48;2.33;;;;;;;16.38;40.61;99113.03;5092610;28;20068;-84
2020/12/15 00:48:56;;;;;;;8.65;2.28;;;;;;;16.33;40.78;99116.97;5093735;28;20024;-84
2020/12/15 00:51:21;;;;;;;8.65;2.70;;;;;;;16.33;40.71;99116.19;5095202;28;20035;-89
2020/12/15 00:53:48;;;;;;;9.82;2.20;;;;;;;16.34;40.60;99109.47;5094227;28;20028;-91
2020/12/15 00:56:14;;;;;;;9.63;2.08;;;;;;;16.33;40.60;99122.47;5093573;28;20028;-94
2020/12/15 00:58:40;;;;;;;8.57;2.30;;;;;;;16.32;40.62;99125.59;5093541;28;20024;-84
2020/12/15 01:01:07;;;;;;;9.45;2.42;;;;;;;16.31;40.85;99111.03;5092114;28;20055;-84
2020/12/15 01:03:33;;;;;;;10.50;2.25;;;;;;;16.28;40.73;99111.81;5091756;28;20056;-89
2020/12/15 01:05:59;;;;;;;7.97;2.08;;;;;;;16.29;40.69;99113.41;5093103;28;20039;-85
2020/12/15 01:08:25;;;;;;;8.88;2.33;;;;;;;16.27;40.91;99112.22;5092300;28;20031;-84
2020/12/15 01:10:52;;;;;;;10.68;2.03;;;;;;;16.28;40.65;99111.03;5092142;28;20028;-83
2020/12/15 01:13:18;;;;;;;8.23;2.20;;;;;;;16.25;40.78;99128.38;5092057;28;20027;-91
2020/12/15 01:15:44;;;;;;;8.77;2.80;;;;;;;16.29;40.93;99116.16;5093091;28;20032;-84
2020/12/15 01:18:10;;;;;;;7.63;1.55;;;;;;;16.30;40.69;99117.72;5093482;28;20113;-84
2020/12/15 01:20:35;;;;;;;8.85;2.58;;;;;;;16.30;41.00;99119.69;5091824;28;20027;-83
2020/12/15 01:23:01;;;;;;;11.50;2.83;;;;;;;16.29;40.79;99115.38;5093319;28;20397;-84
2020/12/15 01:25:27;;;;;;;7.93;2.00;;;;;;;16.31;40.99;99126.78;5093174;28;20023;-82
2020/12/15 01:27:52;;;;;;;6.28;2.53;;;;;;;16.31;41.11;99126.78;5093624;28;20104;-93
2020/12/15 01:30:18;;;;;;;6.95;2.08;;;;;;;16.32;40.93;99122.84;5093763;28;20508;-94
2020/12/15 01:32:43;;;;;;;5.88;2.17;;;;;;;16.30;40.83;99125.22;5093577;28;20028;-85
2020/12/15 01:35:09;;;;;;;15.65;4.10;;;;;;;16.30;41.11;99127.97;5092371;28;20032;-83
2020/12/15 01:37:35;;;;;;;8.60;2.05;;;;;;;16.34;40.75;99134.28;5093582;28;20031;-94
2020/12/15 01:40:02;;;;;;;8.23;1.95;;;;;;;16.37;40.71;99136.25;5091630;28;20032;-83
2020/12/15 01:42:27;;;;;;;8.07;2.25;;;;;;;16.38;40.87;99132.31;5093101;28;20024;-95
2020/12/15 01:44:53;;;;;;;9.20;1.95;;;;;;;16.36;40.80;99131.91;5092111;28;20020;-94
2020/12/15 01:47:19;;;;;;;7.07;2.63;;;;;;;16.36;40.84;99140.19;5091862;28;20070;-83
2020/12/15 01:49:45;;;;;;;11.23;2.63;;;;;;;16.36;40.73;99142.94;5096543;28;20020;-93
2020/12/15 01:52:12;;;;;;;8.27;1.90;;;;;;;16.41;40.67;99136.28;5096723;28;20035;-84
2020/12/15 01:54:39;;;;;;;8.50;1.98;;;;;;;16.49;40.39;99138.66;5096429;28;20110;-93
2020/12/15 01:57:04;;;;;;;8.00;1.80;;;;;;;16.39;40.74;99139.41;5097310;28;20020;-90
2020/12/15 01:59:30;;;;;;;6.50;1.73;;;;;;;16.36;40.88;99140.19;5098105;28;20107;-83
2020/12/15 02:01:56;;;;;;;6.90;1.73;;;;;;;16.34;40.78;99148.06;5095487;28;20075;-92
2020/12/15 02:04:22;;;;;;;5.15;1.77;;;;;;;16.38;40.83;99138.63;5096775;28;20485;-83
2020/12/15 02:06:48;;;;;;;5.85;1.63;;;;;;;16.34;40.57;99137.03;5096709;28;20466;-83
2020/12/15 02:09:18;;;;;;;8.75;2.05;;;;;;;16.28;40.52;99144.13;5095310;28;20032;-86
2020/12/15 02:11:44;;;;;;;8.57;1.88;;;;;;;16.25;40.82;99155.94;5096866;28;20028;-95
2020/12/15 02:14:11;;;;;;;17.30;2.40;;;;;;;16.24;40.86;99149.59;5095186;28;20028;-84
2020/12/15 02:16:40;;;;;;;7.30;1.95;;;;;;;16.13;40.88;99148.00;5096324;28;20596;-84
2020/12/15 02:19:14;;;;;;;5.20;2.10;;;;;;;16.09;40.91;99154.28;5095295;28;20427;-94
2020/12/15 02:21:48;;;;;;;10.80;2.05;;;;;;;16.16;40.81;99153.50;5095286;28;20284;-84
2020/12/15 02:24:14;;;;;;;7.80;2.13;;;;;;;16.17;40.72;99157.88;5095138;28;20025;-94
2020/12/15 02:26:40;;;;;;;8.77;1.85;;;;;;;16.11;41.17;99158.63;5097280;28;20347;-85
2020/12/15 02:29:06;;;;;;;8.00;1.80;;;;;;;16.13;41.00;99151.53;5098728;28;20105;-85
2020/12/15 02:31:32;;;;;;;5.50;1.63;;;;;;;16.14;41.01;99155.09;5098498;28;20485;-84
2020/12/15 02:33:57;;;;;;;6.93;2.38;;;;;;;16.09;41.01;99159.78;5097613;28;20089;-95
2020/12/15 02:36:23;;;;;;;10.52;3.78;;;;;;;16.07;40.95;99162.16;5098536;28;20054;-85
2020/12/15 02:38:48;;;;;;;7.07;1.77;;;;;;;16.03;40.78;99161.34;5097796;28;20073;-86
2020/12/15 02:41:14;;;;;;;8.50;2.05;;;;;;;16.00;41.01;99167.63;5095280;28;20031;-86
2020/12/15 02:43:39;;;;;;;8.43;1.85;;;;;;;15.94;40.93;99165.63;5095392;28;20027;-84
2020/12/15 02:46:05;;;;;;;8.60;2.40;;;;;;;15.88;40.81;99169.94;5097004;28;20482;-85
2020/12/15 02:48:30;;;;;;;8.63;1.92;;;;;;;15.87;40.93;99169.16;5099437;28;20087;-95
2020/12/15 02:50:56;;;;;;;7.45;1.65;;;;;;;15.86;40.91;99173.06;5096698;28;20020;-85
2020/12/15 02:53:22;;;;;;;9.43;2.55;;;;;;;15.81;40.86;99168.72;5098036;28;20031;-83
2020/12/15 02:55:47;;;;;;;8.88;2.22;;;;;;;15.77;40.77;99169.88;5095545;28;20423;-87
2020/12/15 02:58:13;;;;;;;7.05;1.77;;;;;;;15.77;40.87;99175.38;5099348;28;20028;-90
2020/12/15 03:00:38;;;;;;;12.00;2.20;;;;;;;15.79;41.05;99184.03;5098023;28;20107;-84
2020/12/15 03:03:04;;;;;;;8.43;1.85;;;;;;;15.74;41.04;99187.97;5095848;28;20043;-84
2020/12/15 03:05:29;;;;;;;5.15;1.98;;;;;;;15.96;40.61;99186.13;5098670;28;20032;-85
2020/12/15 03:07:56;;;;;;;7.57;2.17;;;;;;;16.01;40.40;99188.47;5098984;28;20083;-95
2020/12/15 03:10:21;;;;;;;10.68;2.22;;;;;;;16.01;40.31;99191.25;5101676;28;20024;-86
2020/12/15 03:12:47;;;;;;;9.43;2.10;;;;;;;16.06;40.25;99201.09;5099001;28;20080;-92
2020/12/15 03:15:13;;;;;;;9.73;2.40;;;;;;;15.98;40.54;99196.75;5102461;28;20020;-95
2020/12/15 03:17:47;;;;;;;13.32;2.30;;;;;;;15.99;40.56;99196.34;5105017;28;20024;-95
2020/12/15 03:20:13;;;;;;;6.60;2.65;;;;;;;16.00;40.79;99194.38;5105819;28;20107;-84
2020/12/15 03:22:38;;;;;;;11.55;3.75;;;;;;;15.98;40.96;99197.53;5100944;28;20067;-86
2020/12/15 03:25:05;;;;;;;10.70;2.20;;;;;;;16.02;40.73;99203.03;5099587;28;20020;-95
2020/12/15 03:27:30;;;;;;;9.50;1.75;;;;;;;15.82;41.38;99202.56;5101731;28;20020;-92
2020/12/15 03:29:56;;;;;;;5.90;1.40;;;;;;;15.74;41.59;99203.69;5100251;28;20034;-93
2020/12/15 03:32:21;;;;;;;8.15;1.77;;;;;;;15.72;41.25;99200.56;5100744;28;20509;-85
2020/12/15 03:34:47;;;;;;;8.45;2.38;;;;;;;15.69;41.42;99201.31;5097728;28;20383;-95
2020/12/15 03:37:12;;;;;;;7.45;1.65;;;;;;;15.60;41.62;99204.38;5096086;28;20089;-86
2020/12/15 03:39:38;;;;;;;9.10;1.88;;;;;;;15.67;41.34;99200.91;5095681;28;20161;-92
2020/12/15 03:42:03;;;;;;;9.85;2.22;;;;;;;15.62;41.59;99195.75;5096257;28;20036;-84
2020/12/15 03:44:29;;;;;;;10.68;2.47;;;;;;;15.64;41.34;99196.97;5096954;28;20036;-84
2020/12/15 03:46:54;;;;;;;11.20;1.75;;;;;;;15.63;41.51;99202.84;5097345;28;20031;-93
2020/12/15 03:49:20;;;;;;;8.00;2.10;;;;;;;15.52;41.84;99205.50;5098691;28;20078;-84
2020/12/15 03:51:46;;;;;;;10.27;2.65;;;;;;;15.59;41.35;99199.25;5097983;28;20024;-94
2020/12/15 03:54:12;;;;;;;11.50;2.03;;;;;;;15.49;41.67;99198.81;5099084;28;20020;-88
2020/12/15 03:56:37;;;;;;;5.80;1.75;;;;;;;15.50;41.66;99194.88;5099366;28;20024;-84
2020/12/15 03:59:03;;;;;;;8.98;1.70;;;;;;;15.52;41.70;99203.53;5099793;28;20027;-95
2020/12/15 04:01:31;;;;;;;11.13;3.45;;;;;;;15.45;42.06;99202.69;5101836;28;20047;-87
2020/12/15 04:03:57;;;;;;;5.85;1.98;;;;;;;15.59;41.75;99202.78;5098862;28;20039;-95
2020/12/15 04:06:23;;;;;;;5.90;1.85;;;;;;;15.55;41.65;99207.47;5105400;28;20485;-95
2020/12/15 04:08:48;;;;;;;9.13;2.10;;;;;;;15.61;41.73;99213.41;5104706;28;20089;-91
2020/12/15 04:11:14;;;;;;;13.30;2.63;;;;;;;15.55;41.95;99218.50;5099701;28;20035;-83
2020/12/15 04:13:40;;;;;;;8.82;2.30;;;;;;;15.57;41.84;99226.34;5100756;28;20057;-91
2020/12/15 04:16:05;;;;;;;8.45;2.13;;;;;;;15.62;41.77;99223.28;5096330;28;20436;-88
2020/12/15 04:18:31;;;;;;;8.13;1.38;;;;;;;15.60;41.66;99222.84;5097150;28;20031;-93
2020/12/15 04:20:57;;;;;;;5.75;1.90;;;;;;;15.54;41.70;99216.91;5093315;28;20024;-90
2020/12/15 04:23:22;;;;;;;14.18;2.50;;;;;;;15.64;41.88;99221.75;5095660;28;20482;-94
2020/12/15 04:25:54;;;;;;;6.40;2.05;;;;;;;15.70;41.46;99219.41;5094056;28;20647;-92
2020/12/15 04:28:19;;;;;;;10.18;1.80;;;;;;;15.70;41.64;99224.91;5097894;28;20043;-93
2020/12/15 04:30:45;;;;;;;8.55;1.45;;;;;;;15.66;41.99;99229.63;5091924;28;20089;-84
2020/12/15 04:33:11;;;;;;;8.00;1.67;;;;;;;15.72;41.59;99228.09;5093724;28;20046;-84
2020/12/15 04:35:37;;;;;;;6.28;1.50;;;;;;;15.72;41.93;99231.63;5092165;28;20028;-91
2020/12/15 04:38:03;;;;;;;6.97;1.45;;;;;;;15.73;41.69;99229.66;5092232;28;20043;-93
2020/12/15 04:40:34;;;;;;;7.00;1.30;;;;;;;15.69;41.61;99220.59;5091841;28;20082;-83
2020/12/15 04:43:01;;;;;;;6.45;1.73;;;;;;;15.74;41.54;99225.75;5093636;28;20020;-85
2020/12/15 04:45:28;;;;;;;6.10;1.55;;;;;;;15.71;41.69;99220.97;5096632;28;20074;-93
2020/12/15 04:48:02;;;;;;;7.68;1.38;;;;;;;15.63;41.85;99222.09;5091894;28;20525;-91
2020/12/15 04:50:32;;;;;;;10.27;2.08;;;;;;;15.68;41.79;99227.25;5092167;28;20500;-94
2020/12/15 04:53:03;;;;;;;5.18;1.02;;;;;;;15.65;41.97;99225.28;5091267;28;20118;-85
2020/12/15 04:55:30;;;;;;;7.65;1.65;;;;;;;15.65;42.15;99233.56;5091341;28;20031;-85
2020/12/15 04:57:59;;;;;;;10.25;2.13;;;;;;;15.60;42.13;99236.63;5090698;28;20100;-90
2020/12/15 05:00:24;;;;;;;12.63;2.40;;;;;;;15.59;42.14;99235.03;5092737;28;20038;-84
2020/12/15 05:02:53;;;;;;;8.77;1.98;;;;;;;15.59;42.15;99235.03;5093037;28;20048;-93
2020/12/15 05:05:22;;;;;;;4.82;1.42;;;;;;;15.68;41.85;99227.25;5094419;28;20028;-94
2020/12/15 05:07:48;;;;;;;6.70;1.75;;;;;;;15.72;41.88;99237.13;5093870;28;20028;-84
2020/12/15 05:10:17;;;;;;;3.85;1.70;;;;;;;15.85;41.63;99237.59;5095040;28;20027;-93
2020/12/15 05:12:44;;;;;;;11.35;1.65;;;;;;;15.66;41.81;99241.41;5096161;28;20020;-95
2020/12/15 05:15:15;;;;;;;6.75;2.45;;;;;;;15.67;41.81;99236.69;5095692;28;20028;-83
2020/12/15 05:17:42;;;;;;;10.52;1.38;;;;;;;15.59;42.07;99248.81;5090580;28;20054;-89
2020/12/15 05:20:15;;;;;;;8.85;1.75;;;;;;;15.60;42.08;99253.13;5092574;28;20139;-85
2020/12/15 05:22:46;;;;;;;9.23;1.77;;;;;;;15.67;42.05;99245.75;5096332;28;20083;-94
2020/12/15 05:25:40;;;;;;;9.27;1.52;;;;;;;15.58;42.22;99245.28;5097598;28;20051;-93
2020/12/15 05:28:11;;;;;;;4.88;1.60;;;;;;;15.58;42.18;99242.50;5092490;28;20044;-95
2020/12/15 05:30:37;;;;;;;5.90;1.55;;;;;;;15.70;42.11;99244.19;5105103;28;20047;-94
2020/12/15 05:33:07;;;;;;;9.18;1.88;;;;;;;15.63;42.12;99244.91;5096536;28;20031;-92
2020/12/15 05:35:35;;;;;;;7.22;1.70;;;;;;;15.59;42.49;99246.84;5095867;28;20032;-84
2020/12/15 05:38:04;;;;;;;9.75;2.47;;;;;;;15.58;42.54;99252.75;5094938;28;20046;-81
2020/12/15 05:40:30;;;;;;;10.35;2.92;;;;;;;15.65;42.43;99247.31;5091923;28;20399;-83
2020/12/15 05:42:58;;;;;;;10.80;2.15;;;;;;;15.51;42.79;99247.97;5095599;28;20035;-84
2020/12/15 05:45:25;;;;;;;13.05;3.58;;;;;;;15.58;42.64;99258.25;5094023;28;20023;-82
2020/12/15 05:48:00;;;;;;;6.82;1.38;;;;;;;15.49;42.70;99256.63;5096468;28;20031;-92
2020/12/15 05:50:26;;;;;;;6.32;1.42;;;;;;;15.61;42.91;99258.28;5097161;28;20020;-84
2020/12/15 05:53:04;;;;;;;5.20;2.20;;;;;;;15.64;42.69;99260.28;5094882;28;20509;-90
2020/12/15 05:55:30;;;;;;;7.03;1.70;;;;;;;15.58;42.57;99272.81;5093098;28;20397;-83
2020/12/15 05:57:58;;;;;;;7.88;1.73;;;;;;;15.63;42.30;99268.91;5095333;28;20024;-84
2020/12/15 06:00:42;;;;;;;8.43;1.30;;;;;;;15.56;42.77;99272.38;5094474;28;20078;-83
2020/12/15 06:03:08;;;;;;;9.98;1.65;;;;;;;15.66;42.36;99274.47;5091101;28;20036;-83
2020/12/15 06:05:37;;;;;;;6.95;1.52;;;;;;;15.57;42.74;99279.47;5095105;28;20027;-84
2020/12/15 06:08:04;;;;;;;7.97;1.38;;;;;;;15.43;42.78;99285.66;5095360;28;20527;-84
2020/12/15 06:10:31;;;;;;;11.05;2.38;;;;;;;15.51;42.83;99284.53;5094010;28;20032;-84
2020/12/15 06:12:59;;;;;;;6.22;1.55;;;;;;;15.46;42.76;99290.38;5093377;28;20032;-83
2020/12/15 06:15:26;;;;;;;5.40;1.58;;;;;;;15.52;42.49;99291.63;5094867;28;20036;-84
2020/12/15 06:18:02;;;;;;;11.38;1.92;;;;;;;15.43;42.90;99295.88;5109472;28;20028;-92
2020/12/15 06:20:32;;;;;;;13.05;2.10;;;;;;;15.52;42.61;99290.84;5114783;28;20064;-91
2020/12/15 06:22:58;;;;;;;7.55;1.50;;;;;;;15.63;42.51;99293.69;5098484;28;20052;-84
2020/12/15 06:25:38;;;;;;;12.85;2.42;;;;;;;15.55;42.55;99290.06;5096528;28;20546;-84
2020/12/15 06:28:08;;;;;;;13.43;1.98;;;;;;;15.50;42.80;99287.69;5099822;28;20024;-85
2020/12/15 06:30:38;;;;;;;;;;;;;;;15.42;42.90;99295.09;5098562;28;20034;-84
2020/12/15 06:33:06;;;;;;;4.00;1.63;;;;;;;15.46;42.67;99295.09;5093768;28;19912;-94
2020/12/15 06:35:32;;;;;;;7.35;1.92;;;;;;;15.49;42.92;99303.41;5098329;28;20059;-87
2020/12/15 06:37:59;;;;;;;10.15;1.60;;;;;;;15.46;42.89;99300.63;5098769;28;20549;-84
2020/12/15 06:40:26;;;;;;;8.57;1.95;;;;;;;15.54;42.67;99300.28;5100460;28;20076;-90
2020/12/15 06:42:58;;;;;;;8.52;1.98;;;;;;;15.53;42.55;99304.22;5096271;28;20024;-85
2020/12/15 06:45:24;;;;;;;10.00;1.73;;;;;;;15.38;43.01;99298.97;5094582;28;20474;-91
2020/12/15 06:48:01;;;;;;;5.55;1.48;;;;;;;15.44;42.75;99303.75;5093999;28;20034;-79
2020/12/15 06:50:27;;;;;;;7.50;2.65;;;;;;;15.49;42.86;99313.59;5094710;28;20031;-79
2020/12/15 06:52:54;;;;;;;6.95;1.50;;;;;;;15.35;42.89;99311.53;5095006;28;20032;-73
2020/12/15 06:55:30;;;;;;;3.53;1.42;;;;;;;15.46;42.71;99317.91;5094722;28;20157;-73
2020/12/15 06:58:02;;;;;;;12.02;1.88;;;;;;;15.35;43.02;99310.75;5094669;28;20035;-75
2020/12/15 07:00:35;;;;;;;11.63;1.80;;;;;;;15.43;42.57;99315.16;5093982;28;20020;-82
2020/12/15 07:03:02;;;;;;;8.55;1.52;;;;;;;15.48;42.57;99318.31;5091011;28;20054;-79
2020/12/15 07:05:31;;;;;;;5.78;1.30;;;;;;;15.36;42.84;99324.13;5094493;28;20073;-74
2020/12/15 07:08:05;;;;;;;8.70;1.35;;;;;;;15.45;42.81;99329.31;5094626;28;20031;-79
2020/12/15 07:10:31;;;;;;;10.48;1.70;;;;;;;15.50;42.41;99335.25;5093771;28;20024;-81
2020/12/15 07:12:59;;;;;;;5.10;1.08;;;;;;;15.32;42.94;99333.50;5092966;28;20024;-73
2020/12/15 07:15:30;;;;;;;6.05;1.42;;;;;;;15.45;42.37;99338.34;5094168;28;20463;-74
2020/12/15 07:17:56;;;;;;;9.57;2.40;;;;;;;15.40;42.41;99346.16;5092961;28;20024;-73
2020/12/15 07:20:23;;;;;;;4.53;1.27;;;;;;;15.42;42.35;99350.13;5091596;28;20538;-74
2020/12/15 07:22:49;;;;;;;5.88;1.80;;;;;;;15.33;42.47;99352.38;5092795;28;20036;-81
2020/12/15 07:25:17;;;;;;;8.70;3.10;;;;;;;15.27;42.44;99346.47;5089694;28;20024;-80
2020/12/15 07:27:43;;;;;;;12.35;2.20;;;;;;;15.29;42.19;99342.53;5093034;28;20028;-80
2020/12/15 07:30:11;;;;;;;13.13;1.73;;;;;;;15.11;42.61;99347.84;5092785;28;20051;-79
2020/12/15 07:32:38;;;;;;;11.45;2.65;;;;;;;15.09;42.67;99350.19;5089699;28;20043;-77
2020/12/15 07:35:06;;;;;;;6.00;1.48;;;;;;;14.97;42.78;99343.78;5093393;28;20031;-73
2020/12/15 07:37:38;;;;;;;4.35;1.42;;;;;;;14.97;42.75;99332.78;5092903;28;20064;-74
2020/12/15 07:40:07;;;;;;;5.97;1.45;;;;;;;15.30;42.03;99352.38;5093891;28;20035;-76
2020/12/15 07:42:33;;;;;;;5.63;1.75;;;;;;;15.16;42.21;99345.53;5093637;28;20033;-81
2020/12/15 07:45:01;;;;;;;9.25;1.65;;;;;;;15.23;42.09;99353.09;5093418;28;20028;-79
2020/12/15 07:47:27;;;;;;;8.05;1.80;;;;;;;15.21;41.97;99358.19;5093315;28;20382;-73
2020/12/15 07:49:57;;;;;;;4.18;1.48;;;;;;;15.30;41.75;99355.91;5093620;28;20485;-80
2020/12/15 07:52:48;;;;;;;6.60;1.33;;;;;;;15.24;41.70;99366.47;5093633;28;20085;-74
2020/12/15 07:55:15;;;;;;;4.28;1.40;;;;;;;15.27;41.55;99359.44;5092390;28;20039;-73
2020/12/15 07:57:42;;;;;;;14.75;1.90;;;;;;;15.32;41.37;99370.06;5093203;28;20519;-79
2020/12/15 08:00:12;;;;;;;7.65;1.23;;;;;;;15.20;41.42;99373.09;5093710;28;20028;-79
2020/12/15 08:02:38;;;;;;;5.40;1.92;;;;;;;15.19;41.34;99383.31;5093256;28;20079;-73
2020/12/15 08:05:08;;;;;;;5.05;1.20;;;;;;;15.12;41.46;99376.94;5093557;28;20055;-72
2020/12/15 08:08:02;;;;;;;;;;;;;;;14.92;41.67;99379.84;5093884;28;20398;-73
2020/12/15 08:10:30;;;;;;;4.05;1.40;;;;;;;14.81;41.56;99378.94;5092310;28;20329;-73
2020/12/15 08:12:58;;;;;;;4.88;1.38;;;;;;;14.76;41.73;99382.03;5093226;28;20470;-73
2020/12/15 08:15:28;;;;;;;9.77;1.55;;;;;;;14.65;42.15;99392.88;5093459;28;20478;-72
2020/12/15 08:17:54;;;;;;;7.93;2.30;;;;;;;14.76;41.94;99395.78;5093217;28;20026;-73
2020/12/15 08:20:27;;;;;;;7.72;1.80;;;;;;;14.47;42.91;99402.03;5092753;28;20115;-73
2020/12/15 08:23:12;;;;;;;3.83;1.30;;;;;;;14.77;42.29;99402.06;5092964;28;20604;-77
2020/12/15 08:25:46;;;;;;;6.63;1.83;;;;;;;14.72;42.34;99408.66;5092284;28;20032;-74
2020/12/15 08:28:14;;;;;;;2.90;1.13;;;;;;;14.75;42.32;99402.44;5093083;28;20028;-73
2020/12/15 08:30:40;;;;;;;7.00;1.80;;;;;;;14.90;42.17;99404.19;5092237;28;20050;-73
2020/12/15 08:33:06;;;;;;;9.45;1.67;;;;;;;15.17;41.61;99404.09;5092756;28;20024;-73
2020/12/15 08:35:32;;;;;;;6.47;1.48;;;;;;;15.19;41.36;99410.06;5092828;28;20024;-75
2020/12/15 08:38:01;;;;;;;5.20;1.10;;;;;;;15.16;41.34;99416.28;5092771;28;20027;-73
2020/12/15 08:40:28;;;;;;;7.03;1.63;;;;;;;15.08;41.75;99414.63;5092617;28;20106;-73
2020/12/15 08:43:01;;;;;;;5.90;1.85;;;;;;;14.87;41.94;99426.94;5092360;28;20493;-80
2020/12/15 08:45:27;;;;;;;6.20;1.15;;;;;;;14.70;42.42;99446.75;5088655;28;20409;-79
2020/12/15 08:47:54;;;;;;;4.63;1.25;;;;;;;14.71;42.30;99440.06;5091591;28;20031;-73
2020/12/15 08:50:21;;;;;;;4.50;1.45;;;;;;;14.81;42.06;99431.19;5091540;28;20120;-73
2020/12/15 08:52:47;;;;;;;5.75;1.50;;;;;;;14.85;42.02;99442.22;5092761;28;20460;-73
2020/12/15 08:55:13;;;;;;;3.95;1.08;;;;;;;14.78;42.40;99444.88;5092263;28;20032;-83
2020/12/15 08:57:39;;;;;;;4.13;1.23;;;;;;;14.88;42.16;99450.50;5091559;28;20027;-74
2020/12/15 09:00:16;;;;;;;5.75;1.55;;;;;;;14.67;42.43;99453.00;5092965;28;20103;-85
2020/12/15 09:02:42;;;;;;;6.18;1.60;;;;;;;14.83;42.39;99450.84;5092439;28;20502;-75
2020/12/15 09:05:10;;;;;;;5.63;1.08;;;;;;;14.83;42.29;99453.59;5091907;28;20031;-81
2020/12/15 09:07:37;;;;;;;11.50;2.08;;;;;;;14.83;42.35;99459.09;5091966;28;20509;-83
2020/12/15 09:10:16;;;;;;;5.30;1.33;;;;;;;14.83;42.43;99463.81;5092048;28;20020;-81
2020/12/15 09:12:47;;;;;;;3.67;1.02;;;;;;;14.87;42.47;99479.19;5092461;28;20020;-74
2020/12/15 09:15:14;;;;;;;5.57;1.63;;;;;;;14.67;43.13;99475.78;5092115;28;20620;-75
2020/12/15 09:17:40;;;;;;;5.15;1.25;;;;;;;14.87;42.78;99486.66;5092084;28;20024;-76
2020/12/15 09:20:08;;;;;;;3.33;1.35;;;;;;;15.07;42.32;99479.06;5090970;28;20085;-76
2020/12/15 09:22:36;;;;;;;6.55;1.40;;;;;;;15.12;42.32;99468.53;5090460;28;20028;-81
2020/12/15 09:25:11;;;;;;;5.57;1.45;;;;;;;15.05;42.43;99464.91;5090664;28;20024;-83
2020/12/15 09:27:36;;;;;;;8.38;1.30;;;;;;;15.20;42.46;99463.91;5090937;28;20405;-76
2020/12/15 09:30:03;;;;;;;6.60;2.35;;;;;;;15.26;42.31;99476.13;5090830;28;20020;-75
2020/12/15 09:32:33;;;;;;;8.15;1.67;;;;;;;15.29;42.25;99475.41;5091118;28;20389;-77
2020/12/15 09:34:58;;;;;;;;;;;;;;;15.10;43.02;99481.06;5092213;28;20035;-76
2020/12/15 09:37:24;;;;;;;3.20;1.65;;;;;;;15.47;42.19;99489.38;5092438;28;20289;-82
2020/12/15 09:39:49;;;;;;;7.60;1.75;;;;;;;15.47;42.35;99487.41;5092307;28;20078;-82
2020/12/15 09:42:19;;;;;;;7.35;1.63;;;;;;;15.69;41.91;99490.44;5092536;28;20054;-75
2020/12/15 09:44:45;;;;;;;9.18;1.95;;;;;;;15.70;42.24;99478.25;5092339;28;20028;-75
2020/12/15 09:47:10;;;;;;;6.45;1.48;;;;;;;15.84;42.13;99486.66;5092518;28;20035;-74
2020/12/15 09:49:37;;;;;;;3.50;1.50;;;;;;;15.90;42.31;99493.41;5092287;28;20024;-74
2020/12/15 09:52:03;;;;;;;7.47;1.48;;;;;;;16.02;41.94;99484.06;5092179;28;20024;-80
2020/12/15 09:54:29;;;;;;;7.22;2.50;;;;;;;16.07;42.15;99484.50;5092181;28;20032;-75
2020/12/15 09:56:54;;;;;;;7.82;1.85;;;;;;;16.19;42.05;99486.19;5092223;28;20027;-83
2020/12/15 09:59:20;;;;;;;12.32;2.05;;;;;;;16.26;42.14;99489.00;5092155;28;20020;-76
2020/12/15 10:01:45;;;;;;;9.65;1.85;;;;;;;16.46;41.60;99483.25;5091956;28;20055;-75
2020/12/15 10:04:11;;;;;;;14.90;2.70;;;;;;;16.57;42.04;99490.44;5092129;28;20407;-77
2020/12/15 10:06:37;;;;;;;8.98;1.88;;;;;;;16.54;41.88;99487.63;5092057;28;20024;-80
2020/12/15 10:09:04;;;;;;;4.25;1.45;;;;;;;16.77;41.48;99484.66;5093117;28;20067;-75
2020/12/15 10:11:30;;;;;;;6.57;1.73;;;;;;;16.89;41.65;99481.59;5095671;28;20088;-75
2020/12/15 10:13:56;;;;;;;3.70;1.27;;;;;;;16.95;41.58;99495.81;5094390;28;20028;-76
2020/12/15 10:16:22;;;;;;;5.45;1.95;;;;;;;16.99;42.23;99491.09;5095649;28;20032;-75
2020/12/15 10:18:48;;;;;;;6.07;1.52;;;;;;;17.12;41.79;99500.63;5094353;28;20029;-75
2020/12/15 10:21:18;;;;;;;8.95;1.40;;;;;;;17.23;41.65;99508.94;5094205;28;20020;-81
2020/12/15 10:23:47;;;;;;;6.72;1.58;;;;;;;17.32;41.73;99501.91;5095443;28;20106;-77
2020/12/15 10:26:18;;;;;;;5.93;1.80;;;;;;;17.46;41.30;99504.72;5095831;28;20028;-74
2020/12/15 10:28:44;;;;;;;4.95;1.75;;;;;;;17.54;41.25;99511.06;5095429;28;20520;-75
2020/12/15 10:31:10;;;;;;;5.55;1.88;;;;;;;17.63;41.00;99505.97;5095296;28;20024;-82
2020/12/15 10:33:36;;;;;;;6.15;1.83;;;;;;;17.59;41.06;99512.66;5095352;28;20073;-81
2020/12/15 10:36:02;;;;;;;6.53;1.80;;;;;;;17.69;41.23;99512.69;5095237;28;20031;-75
2020/12/15 10:38:28;;;;;;;7.88;1.67;;;;;;;17.69;41.24;99523.75;5095298;28;20043;-78
2020/12/15 10:40:56;;;;;;;7.60;1.40;;;;;;;17.75;41.08;99522.19;5095237;28;20047;-75
2020/12/15 10:43:21;;;;;;;10.40;2.08;;;;;;;17.81;41.14;99528.13;5095036;28;20110;-75
2020/12/15 10:45:47;;;;;;;5.10;1.23;;;;;;;17.91;41.00;99521.84;5094755;28;20046;-79
2020/12/15 10:48:13;;;;;;;7.35;1.45;;;;;;;18.12;40.38;99531.34;5093932;28;20020;-82
2020/12/15 10:50:40;;;;;;;5.53;1.58;;;;;;;17.90;41.01;99534.06;5094855;28;20024;-76
2020/12/15 10:53:08;;;;;;;9.02;3.08;;;;;;;17.85;40.90;99519.88;5094913;28;20120;-75
2020/12/15 10:55:34;;;;;;;8.68;2.17;;;;;;;17.85;40.98;99520.66;5093302;28;20020;-76
2020/12/15 10:58:00;;;;;;;11.50;1.67;;;;;;;18.08;40.87;99530.56;5094860;28;20432;-75
2020/12/15 11:00:26;;;;;;;6.95;1.83;;;;;;;17.94;41.10;99521.06;5094743;28;20028;-82
2020/12/15 11:02:51;;;;;;;7.55;1.58;;;;;;;17.99;41.25;99525.44;5094481;28;20044;-75
2020/12/15 11:05:17;;;;;;;10.25;2.00;;;;;;;18.07;40.88;99524.25;5094761;28;20028;-75
2020/12/15 11:07:42;;;;;;;6.13;1.50;;;;;;;18.01;41.03;99517.53;5094644;28;20022;-75
2020/12/15 11:10:08;;;;;;;11.60;2.00;;;;;;;18.17;40.83;99523.47;5093344;28;20024;-81
2020/12/15 11:12:34;;;;;;;4.63;1.60;;;;;;;18.06;41.36;99527.38;5094467;28;20028;-75
2020/12/15 11:14:59;;;;;;;9.82;2.88;;;;;;;18.16;41.26;99518.34;5094453;28;20064;-75
2020/12/15 11:17:25;;;;;;;7.88;1.85;;;;;;;18.31;41.02;99514.41;5094453;28;20035;-75
2020/12/15 11:19:50;;;;;;;14.00;2.50;;;;;;;18.25;40.97;99516.75;5094411;28;20059;-75
2020/12/15 11:22:16;;;;;;;12.90;2.38;;;;;;;18.21;41.52;99510.44;5094285;28;20134;-76
2020/12/15 11:24:41;;;;;;;10.52;3.05;;;;;;;18.59;40.98;99505.31;5094266;28;20028;-75
2020/12/15 11:27:07;;;;;;;6.93;2.15;;;;;;;18.64;41.04;99502.13;5094526;28;20162;-76
2020/12/15 11:29:33;;;;;;;9.77;3.05;;;;;;;18.68;41.10;99502.16;5094238;28;20466;-74
2020/12/15 11:31:59;;;;;;;11.88;2.50;;;;;;;18.88;40.96;99499.75;5094102;28;20039;-81